This is the latest recevied weather packets stored in our database for station/object K9RJT. If no packets are shown the sender has not sent any weather packets the latest 10 day(s).
| Time | Temp. | Humidity | Pressure | Rain* | Wind** | Luminosity | Snow |
|---|---|---|---|---|---|---|---|
| 1777843161 | 24.44° C | 38% | 1008.1 hPa | 0 mm | - | 327 W/m² | - |
| 1777842858 | 23.89° C | 39% | 1008.5 hPa | 0 mm | - | 333 W/m² | - |
| 1777842553 | 24.44° C | 37% | 1008.5 hPa | 0 mm | - | 318 W/m² | - |
| 1777842251 | 25° C | 34% | 1008.4 hPa | 0 mm | - | 308 W/m² | - |
| 1777841950 | 25.56° C | 34% | 1008.6 hPa | 0 mm | - | 388 W/m² | - |
| 1777841648 | 26.67° C | 33% | 1008.2 hPa | 0 mm | - | 467 W/m² | - |
| 1777841344 | 27.22° C | 28% | 1008.5 hPa | 0 mm | - | 652 W/m² | - |
| 1777841041 | 27.22° C | 27% | 1008.6 hPa | 0 mm | - | 802 W/m² | - |
| 1777840738 | 26.67° C | 29% | 1008.4 hPa | 0 mm | - | 770 W/m² | - |
| 1777840436 | 26.11° C | 28% | 1008.6 hPa | 0 mm | - | 741 W/m² | - |
| 1777840132 | 26.67° C | 28% | 1008.6 hPa | 0 mm | - | 720 W/m² | - |
| 1777839831 | 26.11° C | 30% | 1008.5 hPa | 0 mm | - | 705 W/m² | - |
| 1777839529 | 25.56° C | 30% | 1008.5 hPa | 0 mm | - | 701 W/m² | - |
| 1777839225 | 26.67° C | 29% | 1008.8 hPa | 0 mm | - | 699 W/m² | - |
| 1777838923 | 26.11° C | 30% | 1008.8 hPa | 0 mm | - | 697 W/m² | - |
| 1777838618 | 25° C | 30% | 1008.6 hPa | 0 mm | - | 697 W/m² | - |
| 1777838316 | 25° C | 31% | 1009 hPa | 0 mm | - | 694 W/m² | - |
| 1777838012 | 25° C | 31% | 1008.8 hPa | 0 mm | - | 693 W/m² | - |
| 1777837710 | 25° C | 31% | 1009.2 hPa | 0 mm | - | 690 W/m² | - |
| 1777837406 | 25° C | 32% | 1009.2 hPa | 0 mm | - | 689 W/m² | - |
| 1777837102 | 25° C | 32% | 1009.4 hPa | 0 mm | - | 687 W/m² | - |
| 1777836798 | 25° C | 31% | 1009.3 hPa | 0 mm | - | 684 W/m² | - |
| 1777836494 | 24.44° C | 33% | 1009.3 hPa | 0 mm | - | 683 W/m² | - |
| 1777836189 | 23.89° C | 35% | 1009.7 hPa | 0 mm | - | 682 W/m² | - |
| 1777835886 | 23.89° C | 35% | 1009.8 hPa | 0 mm | - | 682 W/m² | - |
* Rain latest hour (hover to see other rain measurements)
** Current wind speed in m/s (hover to see current wind gust speed)